sensor_id;sensor_type;location;lat;lon;timestamp;pressure;altitude;pressure_sealevel;temperature;humidity
75420;BME280;63998;52.488;13.428;2022-10-14T00:01:16;101136.03;;;11.99;72.58
75420;BME280;63998;52.488;13.428;2022-10-14T00:03:42;101135.16;;;12.03;72.63
75420;BME280;63998;52.488;13.428;2022-10-14T00:06:18;101136.91;;;12.05;72.35
75420;BME280;63998;52.488;13.428;2022-10-14T00:08:44;101138.66;;;12.08;72.52
75420;BME280;63998;52.488;13.428;2022-10-14T00:11:16;101131.69;;;11.98;72.50
75420;BME280;63998;52.488;13.428;2022-10-14T00:13:41;101135.09;;;11.87;73.13
75420;BME280;63998;52.488;13.428;2022-10-14T00:16:18;101128.97;;;11.73;73.71
75420;BME280;63998;52.488;13.428;2022-10-14T00:18:45;101124.59;;;11.66;73.67
75420;BME280;63998;52.488;13.428;2022-10-14T00:21:10;101122.91;;;11.71;73.17
75420;BME280;63998;52.488;13.428;2022-10-14T00:23:38;101121.13;;;11.67;73.67
75420;BME280;63998;52.488;13.428;2022-10-14T00:26:11;101116.81;;;11.69;74.24
75420;BME280;63998;52.488;13.428;2022-10-14T00:28:38;101124.56;;;11.57;73.72
75420;BME280;63998;52.488;13.428;2022-10-14T00:31:03;101134.09;;;11.53;74.33
75420;BME280;63998;52.488;13.428;2022-10-14T00:33:33;101129.75;;;11.48;74.32
75420;BME280;63998;52.488;13.428;2022-10-14T00:36:00;101126.25;;;11.46;74.97
75420;BME280;63998;52.488;13.428;2022-10-14T00:38:26;101125.38;;;11.50;75.33
75420;BME280;63998;52.488;13.428;2022-10-14T00:40:52;101117.63;;;11.56;74.91
75420;BME280;63998;52.488;13.428;2022-10-14T00:43:22;101126.34;;;11.69;75.07
75420;BME280;63998;52.488;13.428;2022-10-14T00:45:47;101116.78;;;11.62;74.42
75420;BME280;63998;52.488;13.428;2022-10-14T00:48:13;101115.94;;;11.61;74.60
75420;BME280;63998;52.488;13.428;2022-10-14T00:50:42;101115.00;;;11.53;74.39
75420;BME280;63998;52.488;13.428;2022-10-14T00:53:12;101118.47;;;11.47;74.00
75420;BME280;63998;52.488;13.428;2022-10-14T00:55:38;101124.50;;;11.42;73.99
75420;BME280;63998;52.488;13.428;2022-10-14T00:58:05;101117.59;;;11.47;73.96
75420;BME280;63998;52.488;13.428;2022-10-14T01:00:31;101112.41;;;11.47;74.31
75420;BME280;63998;52.488;13.428;2022-10-14T01:03:05;101117.59;;;11.50;74.87
75420;BME280;63998;52.488;13.428;2022-10-14T01:05:33;101119.31;;;11.51;74.16
75420;BME280;63998;52.488;13.428;2022-10-14T01:08:04;101120.22;;;11.56;74.62
75420;BME280;63998;52.488;13.428;2022-10-14T01:11:03;101113.31;;;11.60;73.36
75420;BME280;63998;52.488;13.428;2022-10-14T01:13:39;101108.97;;;11.66;73.15
75420;BME280;63998;52.488;13.428;2022-10-14T01:21:52;101107.25;;;11.68;72.69
75420;BME280;63998;52.488;13.428;2022-10-14T01:24:41;101103.78;;;11.60;73.23
75420;BME280;63998;52.488;13.428;2022-10-14T01:30:01;101102.91;;;11.61;73.08
75420;BME280;63998;52.488;13.428;2022-10-14T01:33:03;101106.38;;;11.63;73.45
75420;BME280;63998;52.488;13.428;2022-10-14T01:38:37;101102.03;;;11.62;73.39
75420;BME280;63998;52.488;13.428;2022-10-14T01:41:18;101100.28;;;11.58;72.87
75420;BME280;63998;52.488;13.428;2022-10-14T01:43:48;101095.09;;;11.58;72.54
75420;BME280;63998;52.488;13.428;2022-10-14T01:46:17;101095.97;;;11.62;73.07
75420;BME280;63998;52.488;13.428;2022-10-14T01:48:47;101093.34;;;11.57;72.80
75420;BME280;63998;52.488;13.428;2022-10-14T01:51:19;101095.06;;;11.55;73.17
75420;BME280;63998;52.488;13.428;2022-10-14T01:54:03;101089.88;;;11.49;72.73
75420;BME280;63998;52.488;13.428;2022-10-14T01:56:30;101098.47;;;11.39;72.97
75420;BME280;63998;52.488;13.428;2022-10-14T01:59:02;101100.19;;;11.34;73.45
75420;BME280;63998;52.488;13.428;2022-10-14T02:01:28;101100.22;;;11.35;73.11
75420;BME280;63998;52.488;13.428;2022-10-14T02:03:53;101096.72;;;11.38;73.18
75420;BME280;63998;52.488;13.428;2022-10-14T02:06:26;101098.47;;;11.36;73.65
75420;BME280;63998;52.488;13.428;2022-10-14T02:09:31;101103.66;;;11.33;73.29
75420;BME280;63998;52.488;13.428;2022-10-14T02:17:32;101089.75;;;11.26;73.12
75420;BME280;63998;52.488;13.428;2022-10-14T02:20:00;101101.03;;;11.24;73.47
75420;BME280;63998;52.488;13.428;2022-10-14T02:22:39;101092.31;;;11.20;73.39
75420;BME280;63998;52.488;13.428;2022-10-14T02:25:15;101111.34;;;11.16;73.38
75420;BME280;63998;52.488;13.428;2022-10-14T02:27:45;101107.84;;;11.05;73.95
75420;BME280;63998;52.488;13.428;2022-10-14T02:30:13;101103.41;;;10.87;75.64
75420;BME280;63998;52.488;13.428;2022-10-14T02:32:40;101103.28;;;10.72;76.00
75420;BME280;63998;52.488;13.428;2022-10-14T02:35:09;101110.09;;;10.55;76.72
75420;BME280;63998;52.488;13.428;2022-10-14T02:37:37;101099.72;;;10.56;77.10
75420;BME280;63998;52.488;13.428;2022-10-14T02:40:13;101103.13;;;10.48;77.13
75420;BME280;63998;52.488;13.428;2022-10-14T02:42:40;101101.41;;;10.53;77.47
75420;BME280;63998;52.488;13.428;2022-10-14T02:45:09;101105.75;;;10.51;77.22
75420;BME280;63998;52.488;13.428;2022-10-14T02:47:37;101103.00;;;10.35;77.48
75420;BME280;63998;52.488;13.428;2022-10-14T02:50:05;101098.59;;;10.28;77.28
75420;BME280;63998;52.488;13.428;2022-10-14T02:52:33;101099.50;;;10.30;77.80
75420;BME280;63998;52.488;13.428;2022-10-14T02:54:59;101102.94;;;10.29;78.21
75420;BME280;63998;52.488;13.428;2022-10-14T02:57:24;101100.25;;;10.19;77.96
75420;BME280;63998;52.488;13.428;2022-10-14T02:59:50;101099.31;;;10.12;78.61
75420;BME280;63998;52.488;13.428;2022-10-14T03:02:15;101096.78;;;10.18;78.49
75420;BME280;63998;52.488;13.428;2022-10-14T03:04:40;101101.16;;;10.22;78.09
75420;BME280;63998;52.488;13.428;2022-10-14T03:07:08;101101.25;;;10.33;78.07
75420;BME280;63998;52.488;13.428;2022-10-14T03:09:35;101089.19;;;10.36;77.86
75420;BME280;63998;52.488;13.428;2022-10-14T03:12:03;101090.09;;;10.44;77.35
75420;BME280;63998;52.488;13.428;2022-10-14T03:14:31;101074.56;;;10.52;77.98
75420;BME280;63998;52.488;13.428;2022-10-14T03:16:58;101075.50;;;10.60;77.53
75420;BME280;63998;52.488;13.428;2022-10-14T03:19:24;101075.53;;;10.68;77.07
75420;BME280;63998;52.488;13.428;2022-10-14T03:21:49;101071.25;;;10.76;76.80
75420;BME280;63998;52.488;13.428;2022-10-14T03:24:15;101070.47;;;10.86;76.64
75420;BME280;63998;52.488;13.428;2022-10-14T03:26:41;101073.13;;;10.95;76.49
75420;BME280;63998;52.488;13.428;2022-10-14T03:29:06;101073.16;;;11.04;76.01
75420;BME280;63998;52.488;13.428;2022-10-14T03:31:31;101076.69;;;11.09;75.96
75420;BME280;63998;52.488;13.428;2022-10-14T03:33:59;101072.34;;;11.14;75.66
75420;BME280;63998;52.488;13.428;2022-10-14T03:36:27;101065.44;;;11.16;76.04
75420;BME280;63998;52.488;13.428;2022-10-14T03:38:55;101077.63;;;11.24;75.43
75420;BME280;63998;52.488;13.428;2022-10-14T03:41:20;101067.22;;;11.27;75.67
75420;BME280;63998;52.488;13.428;2022-10-14T03:43:48;101070.69;;;11.29;74.97
75420;BME280;63998;52.488;13.428;2022-10-14T03:46:13;101064.59;;;11.25;74.92
75420;BME280;63998;52.488;13.428;2022-10-14T03:48:41;101063.75;;;11.25;74.61
75420;BME280;63998;52.488;13.428;2022-10-14T03:51:07;101070.69;;;11.24;74.73
75420;BME280;63998;52.488;13.428;2022-10-14T03:53:32;101068.91;;;11.15;74.41
75420;BME280;63998;52.488;13.428;2022-10-14T03:55:57;101072.34;;;11.14;75.14
75420;BME280;63998;52.488;13.428;2022-10-14T03:58:23;101068.03;;;11.16;74.99
75420;BME280;63998;52.488;13.428;2022-10-14T04:00:51;101068.88;;;11.09;74.96
75420;BME280;63998;52.488;13.428;2022-10-14T04:03:16;101068.78;;;10.94;74.93
75420;BME280;63998;52.488;13.428;2022-10-14T04:05:41;101064.34;;;10.75;75.79
75420;BME280;63998;52.488;13.428;2022-10-14T04:08:07;101060.06;;;10.85;75.83
75420;BME280;63998;52.488;13.428;2022-10-14T04:10:33;101059.22;;;10.87;75.84
75420;BME280;63998;52.488;13.428;2022-10-14T04:13:00;101055.78;;;10.93;75.73
75420;BME280;63998;52.488;13.428;2022-10-14T04:15:26;101057.50;;;10.91;75.59
75420;BME280;63998;52.488;13.428;2022-10-14T04:17:54;101059.19;;;10.81;75.84
75420;BME280;63998;52.488;13.428;2022-10-14T04:20:20;101060.94;;;10.84;75.98
75420;BME280;63998;52.488;13.428;2022-10-14T04:22:45;101051.44;;;10.87;75.84
75420;BME280;63998;52.488;13.428;2022-10-14T04:25:10;101051.50;;;10.99;75.58
75420;BME280;63998;52.488;13.428;2022-10-14T04:27:36;101048.88;;;10.98;75.20
75420;BME280;63998;52.488;13.428;2022-10-14T04:30:01;101054.88;;;10.85;75.83
75420;BME280;63998;52.488;13.428;2022-10-14T04:32:27;101052.28;;;10.86;76.00
75420;BME280;63998;52.488;13.428;2022-10-14T04:34:52;101047.97;;;10.85;76.07
75420;BME280;63998;52.488;13.428;2022-10-14T04:37:21;101046.19;;;10.81;76.31
75420;BME280;63998;52.488;13.428;2022-10-14T04:39:48;101042.66;;;10.70;76.64
75420;BME280;63998;52.488;13.428;2022-10-14T04:42:14;101048.75;;;10.72;76.20
75420;BME280;63998;52.488;13.428;2022-10-14T04:44:39;101044.44;;;10.74;76.89
75420;BME280;63998;52.488;13.428;2022-10-14T04:47:04;101040.13;;;10.80;76.83
75420;BME280;63998;52.488;13.428;2022-10-14T04:49:30;101035.81;;;10.84;76.77
75420;BME280;63998;52.488;13.428;2022-10-14T04:51:55;101039.22;;;10.77;76.94
75420;BME280;63998;52.488;13.428;2022-10-14T04:54:23;101041.84;;;10.80;76.74
75420;BME280;63998;52.488;13.428;2022-10-14T04:56:50;101039.22;;;10.77;76.54
75420;BME280;63998;52.488;13.428;2022-10-14T04:59:16;101034.03;;;10.77;77.35
75420;BME280;63998;52.488;13.428;2022-10-14T05:01:41;101034.88;;;10.73;77.42
75420;BME280;63998;52.488;13.428;2022-10-14T05:04:08;101037.50;;;10.79;77.54
75420;BME280;63998;52.488;13.428;2022-10-14T05:06:34;101034.09;;;10.86;77.13
75420;BME280;63998;52.488;13.428;2022-10-14T05:09:01;101028.91;;;10.89;76.77
75420;BME280;63998;52.488;13.428;2022-10-14T05:11:27;101035.91;;;10.99;77.24
75420;BME280;63998;52.488;13.428;2022-10-14T05:13:52;101040.22;;;10.96;76.67
75420;BME280;63998;52.488;13.428;2022-10-14T05:16:17;101035.84;;;10.93;76.88
75420;BME280;63998;52.488;13.428;2022-10-14T05:18:46;101041.94;;;11.01;77.04
75420;BME280;63998;52.488;13.428;2022-10-14T05:21:11;101039.38;;;10.98;76.51
75420;BME280;63998;52.488;13.428;2022-10-14T05:23:39;101041.09;;;11.02;77.01
75420;BME280;63998;52.488;13.428;2022-10-14T05:26:04;101042.84;;;11.03;76.64
75420;BME280;63998;52.488;13.428;2022-10-14T05:28:30;101035.03;;;11.03;77.08
75420;BME280;63998;52.488;13.428;2022-10-14T05:30:55;101024.72;;;11.12;76.58
75420;BME280;63998;52.488;13.428;2022-10-14T05:33:21;101038.47;;;11.01;76.33
75420;BME280;63998;52.488;13.428;2022-10-14T05:35:46;101035.91;;;11.02;77.03
75420;BME280;63998;52.488;13.428;2022-10-14T05:38:11;101028.91;;;10.92;76.80
75420;BME280;63998;52.488;13.428;2022-10-14T05:40:40;101031.56;;;11.01;76.48
75420;BME280;63998;52.488;13.428;2022-10-14T05:43:08;101028.97;;;11.04;76.78
75420;BME280;63998;52.488;13.428;2022-10-14T05:45:35;101032.47;;;11.09;77.09
75420;BME280;63998;52.488;13.428;2022-10-14T05:48:03;101026.44;;;11.18;77.51
75420;BME280;63998;52.488;13.428;2022-10-14T05:50:29;101025.59;;;11.21;76.96
75420;BME280;63998;52.488;13.428;2022-10-14T05:52:56;101027.34;;;11.22;76.75
75420;BME280;63998;52.488;13.428;2022-10-14T05:55:22;101027.31;;;11.19;76.17
75420;BME280;63998;52.488;13.428;2022-10-14T05:57:47;101025.59;;;11.19;76.35
75420;BME280;63998;52.488;13.428;2022-10-14T06:00:15;101025.59;;;11.21;76.74
75420;BME280;63998;52.488;13.428;2022-10-14T06:02:43;101023.88;;;11.29;76.97
75420;BME280;63998;52.488;13.428;2022-10-14T06:05:08;101029.97;;;11.32;76.98
75420;BME280;63998;52.488;13.428;2022-10-14T06:07:34;101029.09;;;11.38;76.24
75420;BME280;63998;52.488;13.428;2022-10-14T06:10:02;101031.69;;;11.32;76.01
75420;BME280;63998;52.488;13.428;2022-10-14T06:12:27;101029.09;;;11.29;76.72
75420;BME280;63998;52.488;13.428;2022-10-14T06:14:56;101030.81;;;11.30;76.31
75420;BME280;63998;52.488;13.428;2022-10-14T06:17:21;101026.47;;;11.29;77.12
75420;BME280;63998;52.488;13.428;2022-10-14T06:19:49;101030.81;;;11.28;76.77
75420;BME280;63998;52.488;13.428;2022-10-14T06:22:14;101026.50;;;11.32;77.18
75420;BME280;63998;52.488;13.428;2022-10-14T06:24:42;101039.53;;;11.35;76.36
75420;BME280;63998;52.488;13.428;2022-10-14T06:27:07;101026.50;;;11.38;77.09
75420;BME280;63998;52.488;13.428;2022-10-14T06:29:33;101023.09;;;11.48;76.88
75420;BME280;63998;52.488;13.428;2022-10-14T06:32:08;101026.50;;;11.38;76.23
75420;BME280;63998;52.488;13.428;2022-10-14T06:34:36;101034.31;;;11.41;76.97
75420;BME280;63998;52.488;13.428;2022-10-14T06:37:01;101034.31;;;11.38;76.50
75420;BME280;63998;52.488;13.428;2022-10-14T06:39:26;101030.91;;;11.48;76.89
75420;BME280;63998;52.488;13.428;2022-10-14T06:41:52;101034.41;;;11.61;76.60
75420;BME280;63998;52.488;13.428;2022-10-14T06:44:18;101024.00;;;11.71;76.60
75420;BME280;63998;52.488;13.428;2022-10-14T06:46:44;101027.53;;;11.82;76.80
75420;BME280;63998;52.488;13.428;2022-10-14T06:49:09;101027.53;;;11.95;76.90
75420;BME280;63998;52.488;13.428;2022-10-14T06:51:35;101032.75;;;12.01;75.92
75420;BME280;63998;52.488;13.428;2022-10-14T06:54:02;101032.75;;;11.95;75.65
75420;BME280;63998;52.488;13.428;2022-10-14T06:56:27;101031.00;;;11.84;74.75
75420;BME280;63998;52.488;13.428;2022-10-14T06:58:57;101035.31;;;11.78;75.59
75420;BME280;63998;52.488;13.428;2022-10-14T07:01:28;101037.94;;;11.82;75.25
75420;BME280;63998;52.488;13.428;2022-10-14T07:03:53;101043.13;;;11.88;76.52
75420;BME280;63998;52.488;13.428;2022-10-14T07:06:18;101049.19;;;11.74;75.51
75420;BME280;63998;52.488;13.428;2022-10-14T07:08:44;101040.53;;;11.87;76.24
75420;BME280;63998;52.488;13.428;2022-10-14T07:11:12;101041.44;;;11.98;75.41
75420;BME280;63998;52.488;13.428;2022-10-14T07:13:37;101048.34;;;12.01;75.59
75420;BME280;63998;52.488;13.428;2022-10-14T07:16:04;101043.19;;;12.10;75.32
75420;BME280;63998;52.488;13.428;2022-10-14T07:18:29;101057.06;;;12.09;74.74
75420;BME280;63998;52.488;13.428;2022-10-14T07:20:55;101048.38;;;11.98;74.98
75420;BME280;63998;52.488;13.428;2022-10-14T07:23:21;101057.03;;;12.12;76.01
75420;BME280;63998;52.488;13.428;2022-10-14T07:25:48;101055.31;;;12.05;75.01
75420;BME280;63998;52.488;13.428;2022-10-14T07:28:16;101053.56;;;11.95;75.56
75420;BME280;63998;52.488;13.428;2022-10-14T07:30:41;101050.09;;;12.05;76.32
75420;BME280;63998;52.488;13.428;2022-10-14T07:33:09;101050.09;;;12.05;76.00
75420;BME280;63998;52.488;13.428;2022-10-14T07:35:37;101053.59;;;12.10;75.51
75420;BME280;63998;52.488;13.428;2022-10-14T07:38:05;101060.53;;;12.14;75.91
75420;BME280;63998;52.488;13.428;2022-10-14T07:40:30;101060.53;;;12.08;75.46
75420;BME280;63998;52.488;13.428;2022-10-14T07:42:58;101062.25;;;12.03;75.12
75420;BME280;63998;52.488;13.428;2022-10-14T07:45:24;101058.78;;;11.93;76.23
75420;BME280;63998;52.488;13.428;2022-10-14T07:47:51;101061.38;;;11.85;76.49
75420;BME280;63998;52.488;13.428;2022-10-14T07:50:20;101057.88;;;11.79;76.75
75420;BME280;63998;52.488;13.428;2022-10-14T07:52:45;101047.47;;;11.80;76.88
75420;BME280;63998;52.488;13.428;2022-10-14T07:55:11;101046.63;;;11.97;77.09
75420;BME280;63998;52.488;13.428;2022-10-14T07:57:38;101053.59;;;12.19;76.60
75420;BME280;63998;52.488;13.428;2022-10-14T08:00:04;101063.16;;;12.32;76.16
75420;BME280;63998;52.488;13.428;2022-10-14T08:02:33;101062.28;;;12.33;74.97
75420;BME280;63998;52.488;13.428;2022-10-14T08:05:01;101061.41;;;12.30;75.11
75420;BME280;63998;52.488;13.428;2022-10-14T08:07:26;101062.28;;;12.32;75.11
75420;BME280;63998;52.488;13.428;2022-10-14T08:09:58;101052.72;;;12.26;75.87
75420;BME280;63998;52.488;13.428;2022-10-14T08:12:23;101057.06;;;12.45;75.52
75420;BME280;63998;52.488;13.428;2022-10-14T08:14:49;101063.13;;;12.56;75.69
75420;BME280;63998;52.488;13.428;2022-10-14T08:17:14;101064.00;;;12.58;74.64
75420;BME280;63998;52.488;13.428;2022-10-14T08:19:39;101059.66;;;12.61;74.70
75420;BME280;63998;52.488;13.428;2022-10-14T08:22:05;101054.41;;;12.74;75.26
75420;BME280;63998;52.488;13.428;2022-10-14T08:24:30;101057.00;;;12.85;74.73
75420;BME280;63998;52.488;13.428;2022-10-14T08:27:00;101051.72;;;13.06;74.36
75420;BME280;63998;52.488;13.428;2022-10-14T08:29:28;101045.66;;;13.10;73.47
75420;BME280;63998;52.488;13.428;2022-10-14T08:31:55;101037.81;;;13.22;73.74
75420;BME280;63998;52.488;13.428;2022-10-14T08:34:23;101036.03;;;13.27;73.50
75420;BME280;63998;52.488;13.428;2022-10-14T08:36:52;101034.28;;;13.33;73.37
75420;BME280;63998;52.488;13.428;2022-10-14T08:39:18;101035.97;;;13.37;73.13
75420;BME280;63998;52.488;13.428;2022-10-14T08:44:18;101025.47;;;13.52;72.61
75420;BME280;63998;52.488;13.428;2022-10-14T08:46:49;101025.38;;;13.69;72.33
75420;BME280;63998;52.488;13.428;2022-10-14T08:52:26;101025.88;;;14.18;71.45
75420;BME280;63998;52.488;13.428;2022-10-14T08:55:00;101023.09;;;14.36;70.59
75420;BME280;63998;52.488;13.428;2022-10-14T08:57:31;101026.56;;;14.44;70.24
75420;BME280;63998;52.488;13.428;2022-10-14T08:59:58;101019.50;;;14.54;69.76
75420;BME280;63998;52.488;13.428;2022-10-14T09:05:22;101014.16;;;14.61;69.48
75420;BME280;63998;52.488;13.428;2022-10-14T09:07:51;101012.31;;;14.72;69.07
75420;BME280;63998;52.488;13.428;2022-10-14T09:10:25;101013.91;;;14.86;68.83
75420;BME280;63998;52.488;13.428;2022-10-14T09:12:55;101018.19;;;14.94;68.45
75420;BME280;63998;52.488;13.428;2022-10-14T09:15:37;101018.91;;;15.07;68.45
75420;BME280;63998;52.488;13.428;2022-10-14T09:18:26;101021.47;;;15.12;67.60
75420;BME280;63998;52.488;13.428;2022-10-14T09:20:57;101024.97;;;15.10;67.22
75420;BME280;63998;52.488;13.428;2022-10-14T09:23:24;101011.94;;;15.06;67.32
75420;BME280;63998;52.488;13.428;2022-10-14T09:25:55;101011.09;;;15.05;67.47
75420;BME280;63998;52.488;13.428;2022-10-14T09:28:32;101009.31;;;15.07;67.73
75420;BME280;63998;52.488;13.428;2022-10-14T09:31:00;101009.25;;;15.10;67.67
75420;BME280;63998;52.488;13.428;2022-10-14T09:33:26;101011.88;;;15.09;67.70
75420;BME280;63998;52.488;13.428;2022-10-14T09:35:52;101013.53;;;15.19;67.60
75420;BME280;63998;52.488;13.428;2022-10-14T09:38:18;101011.69;;;15.24;67.21
75420;BME280;63998;52.488;13.428;2022-10-14T09:40:46;101009.19;;;15.17;67.28
75420;BME280;63998;52.488;13.428;2022-10-14T09:43:18;101005.72;;;15.15;67.15
75420;BME280;63998;52.488;13.428;2022-10-14T09:48:31;100995.66;;;15.50;66.89
75420;BME280;63998;52.488;13.428;2022-10-14T09:51:00;100999.81;;;15.66;66.47
75420;BME280;63998;52.488;13.428;2022-10-14T09:53:32;100999.78;;;15.69;65.44
75420;BME280;63998;52.488;13.428;2022-10-14T09:56:06;100999.69;;;15.75;65.28
75420;BME280;63998;52.488;13.428;2022-10-14T09:58:41;100996.16;;;15.78;64.94
75420;BME280;63998;52.488;13.428;2022-10-14T10:01:17;100991.66;;;15.86;64.82
75420;BME280;63998;52.488;13.428;2022-10-14T10:03:44;100995.31;;;15.76;64.85
75420;BME280;63998;52.488;13.428;2022-10-14T10:06:12;100984.78;;;15.79;65.03
75420;BME280;63998;52.488;13.428;2022-10-14T10:09:04;100980.94;;;16.01;64.52
75420;BME280;63998;52.488;13.428;2022-10-14T10:11:36;100976.94;;;16.30;65.07
75420;BME280;63998;52.488;13.428;2022-10-14T10:14:24;100965.38;;;16.41;63.51
75420;BME280;63998;52.488;13.428;2022-10-14T10:17:11;100977.47;;;16.48;62.94
75420;BME280;63998;52.488;13.428;2022-10-14T10:19:43;100970.66;;;16.38;63.06
75420;BME280;63998;52.488;13.428;2022-10-14T10:24:44;100963.19;;;16.66;62.67
75420;BME280;63998;52.488;13.428;2022-10-14T10:27:27;100965.72;;;16.69;62.94
75420;BME280;63998;52.488;13.428;2022-10-14T10:29:54;100969.09;;;16.77;62.49
75420;BME280;63998;52.488;13.428;2022-10-14T10:39:09;100954.63;;;17.00;62.13
75420;BME280;63998;52.488;13.428;2022-10-14T10:52:06;100963.34;;;17.02;61.83
75420;BME280;63998;52.488;13.428;2022-10-14T10:54:39;100961.69;;;16.96;62.30
75420;BME280;63998;52.488;13.428;2022-10-14T10:57:08;100963.53;;;16.93;62.43
75420;BME280;63998;52.488;13.428;2022-10-14T10:59:53;100966.44;;;16.79;62.59
75420;BME280;63998;52.488;13.428;2022-10-14T11:05:13;100950.72;;;16.77;62.54
75420;BME280;63998;52.488;13.428;2022-10-14T11:07:51;100943.19;;;17.04;62.85
75420;BME280;63998;52.488;13.428;2022-10-14T11:16:08;100943.97;;;17.07;61.89
75420;BME280;63998;52.488;13.428;2022-10-14T11:18:47;100941.81;;;17.26;61.93
75420;BME280;63998;52.488;13.428;2022-10-14T11:21:41;100950.38;;;17.34;61.44
75420;BME280;63998;52.488;13.428;2022-10-14T11:27:16;100938.88;;;17.40;61.32
75420;BME280;63998;52.488;13.428;2022-10-14T11:32:41;100936.13;;;17.44;61.13
75420;BME280;63998;52.488;13.428;2022-10-14T11:38:33;100922.53;;;17.27;61.42
75420;BME280;63998;52.488;13.428;2022-10-14T11:41:27;100916.09;;;17.02;61.38
75420;BME280;63998;52.488;13.428;2022-10-14T11:46:54;100905.84;;;17.30;61.19
75420;BME280;63998;52.488;13.428;2022-10-14T11:49:46;100911.19;;;17.25;61.08
75420;BME280;63998;52.488;13.428;2022-10-14T11:52:20;100905.06;;;17.26;60.96
75420;BME280;63998;52.488;13.428;2022-10-14T11:54:56;100901.59;;;17.24;60.76
75420;BME280;63998;52.488;13.428;2022-10-14T11:57:37;100899.81;;;17.26;60.69
75420;BME280;63998;52.488;13.428;2022-10-14T12:00:25;100900.59;;;17.30;60.29
75420;BME280;63998;52.488;13.428;2022-10-14T12:08:32;100887.28;;;17.37;60.38
75420;BME280;63998;52.488;13.428;2022-10-14T12:11:12;100897.72;;;17.40;60.11
75420;BME280;63998;52.488;13.428;2022-10-14T12:13:46;100891.94;;;17.26;60.46
75420;BME280;63998;52.488;13.428;2022-10-14T12:16:15;100889.22;;;17.29;60.47
75420;BME280;63998;52.488;13.428;2022-10-14T12:18:43;100886.19;;;17.09;61.03
75420;BME280;63998;52.488;13.428;2022-10-14T12:21:22;100884.38;;;17.11;61.20
75420;BME280;63998;52.488;13.428;2022-10-14T12:24:18;100885.91;;;17.21;60.80
75420;BME280;63998;52.488;13.428;2022-10-14T12:26:53;100883.81;;;17.35;61.00
75420;BME280;63998;52.488;13.428;2022-10-14T12:29:27;100870.69;;;17.35;60.23
75420;BME280;63998;52.488;13.428;2022-10-14T12:32:05;100885.84;;;17.24;60.51
75420;BME280;63998;52.488;13.428;2022-10-14T12:34:39;100877.09;;;17.23;60.54
75420;BME280;63998;52.488;13.428;2022-10-14T12:45:00;100866.91;;;17.10;60.47
75420;BME280;63998;52.488;13.428;2022-10-14T12:47:34;100866.91;;;17.10;60.40
75420;BME280;63998;52.488;13.428;2022-10-14T12:52:44;100856.97;;;17.24;60.09
75420;BME280;63998;52.488;13.428;2022-10-14T12:55:21;100851.19;;;17.45;59.66
75420;BME280;63998;52.488;13.428;2022-10-14T12:57:56;100850.59;;;17.34;59.21
75420;BME280;63998;52.488;13.428;2022-10-14T13:02:50;100842.91;;;17.64;58.53
75420;BME280;63998;52.488;13.428;2022-10-14T13:11:07;100834.88;;;18.33;56.90
75420;BME280;63998;52.488;13.428;2022-10-14T13:21:08;100819.91;;;19.48;53.27
75420;BME280;63998;52.488;13.428;2022-10-14T13:23:40;100830.69;;;20.65;51.08
75420;BME280;63998;52.488;13.428;2022-10-14T13:26:33;100822.72;;;21.11;49.82
75420;BME280;63998;52.488;13.428;2022-10-14T13:32:14;100807.63;;;22.18;46.10
75420;BME280;63998;52.488;13.428;2022-10-14T13:37:55;100815.31;;;20.29;49.61
75420;BME280;63998;52.488;13.428;2022-10-14T13:40:30;100811.47;;;20.15;49.93
75420;BME280;63998;52.488;13.428;2022-10-14T13:45:37;100817.53;;;19.67;50.80
75420;BME280;63998;52.488;13.428;2022-10-14T13:48:04;100815.75;;;19.41;51.55
75420;BME280;63998;52.488;13.428;2022-10-14T13:50:36;100817.38;;;19.19;51.94
75420;BME280;63998;52.488;13.428;2022-10-14T13:53:04;100814.59;;;18.95;52.73
75420;BME280;63998;52.488;13.428;2022-10-14T13:55:42;100819.09;;;18.64;53.41
75420;BME280;63998;52.488;13.428;2022-10-14T13:58:16;100812.19;;;18.60;53.97
75420;BME280;63998;52.488;13.428;2022-10-14T14:03:22;100809.63;;;18.27;54.69
75420;BME280;63998;52.488;13.428;2022-10-14T14:05:51;100808.81;;;18.25;55.26
75420;BME280;63998;52.488;13.428;2022-10-14T14:08:25;100816.94;;;18.16;55.77
75420;BME280;63998;52.488;13.428;2022-10-14T14:10:56;100818.75;;;18.14;55.75
75420;BME280;63998;52.488;13.428;2022-10-14T14:13:29;100820.72;;;18.06;55.70
75420;BME280;63998;52.488;13.428;2022-10-14T14:15:58;100817.13;;;18.10;56.04
75420;BME280;63998;52.488;13.428;2022-10-14T14:18:33;100817.53;;;17.95;56.30
75420;BME280;63998;52.488;13.428;2022-10-14T14:20:59;100814.25;;;17.87;57.07
75420;BME280;63998;52.488;13.428;2022-10-14T14:23:28;100817.69;;;17.89;57.15
75420;BME280;63998;52.488;13.428;2022-10-14T14:25:56;100813.84;;;18.02;56.81
75420;BME280;63998;52.488;13.428;2022-10-14T14:28:31;100814.00;;;17.96;56.27
75420;BME280;63998;52.488;13.428;2022-10-14T14:30:56;100809.13;;;17.81;56.66
75420;BME280;63998;52.488;13.428;2022-10-14T14:33:31;100805.63;;;17.82;57.10
75420;BME280;63998;52.488;13.428;2022-10-14T14:36:00;100811.66;;;17.85;57.20
75420;BME280;63998;52.488;13.428;2022-10-14T14:38:31;100800.34;;;17.82;56.88
75420;BME280;63998;52.488;13.428;2022-10-14T14:41:20;100803.97;;;17.79;56.74
75420;BME280;63998;52.488;13.428;2022-10-14T14:43:49;100796.16;;;17.76;57.01
75420;BME280;63998;52.488;13.428;2022-10-14T14:46:29;100796.50;;;17.95;57.04